sensor_id;sensor_type;location;lat;lon;timestamp;temperature;humidity
44843;DHT22;31884;52.538;13.820;2023-04-01T00:00:21;10.10;99.90
44843;DHT22;31884;52.538;13.820;2023-04-01T00:02:47;10.10;99.90
44843;DHT22;31884;52.538;13.820;2023-04-01T00:05:13;10.10;99.90
44843;DHT22;31884;52.538;13.820;2023-04-01T00:07:39;10.10;99.90
44843;DHT22;31884;52.538;13.820;2023-04-01T00:10:11;10.10;99.90
44843;DHT22;31884;52.538;13.820;2023-04-01T00:12:37;10.10;99.90
44843;DHT22;31884;52.538;13.820;2023-04-01T00:15:04;10.10;99.90
44843;DHT22;31884;52.538;13.820;2023-04-01T00:17:30;10.10;99.90
44843;DHT22;31884;52.538;13.820;2023-04-01T00:19:56;10.10;99.90
44843;DHT22;31884;52.538;13.820;2023-04-01T00:22:22;10.10;99.90
44843;DHT22;31884;52.538;13.820;2023-04-01T00:24:48;10.00;99.90
44843;DHT22;31884;52.538;13.820;2023-04-01T00:27:14;10.10;99.90
44843;DHT22;31884;52.538;13.820;2023-04-01T00:29:47;10.00;99.90
44843;DHT22;31884;52.538;13.820;2023-04-01T00:32:14;10.00;99.90
44843;DHT22;31884;52.538;13.820;2023-04-01T00:34:40;10.00;99.90
44843;DHT22;31884;52.538;13.820;2023-04-01T00:37:06;10.00;99.90
44843;DHT22;31884;52.538;13.820;2023-04-01T00:39:32;10.00;99.90
44843;DHT22;31884;52.538;13.820;2023-04-01T00:41:59;10.00;99.90
44843;DHT22;31884;52.538;13.820;2023-04-01T00:44:28;10.00;99.90
44843;DHT22;31884;52.538;13.820;2023-04-01T00:46:54;10.00;99.90
44843;DHT22;31884;52.538;13.820;2023-04-01T00:49:23;10.00;99.90
44843;DHT22;31884;52.538;13.820;2023-04-01T00:51:53;10.00;99.90
44843;DHT22;31884;52.538;13.820;2023-04-01T00:54:21;10.00;99.90
44843;DHT22;31884;52.538;13.820;2023-04-01T00:56:56;10.00;99.90
44843;DHT22;31884;52.538;13.820;2023-04-01T00:59:36;10.00;99.90
44843;DHT22;31884;52.538;13.820;2023-04-01T01:02:05;10.00;99.90
44843;DHT22;31884;52.538;13.820;2023-04-01T01:04:34;10.00;99.90
44843;DHT22;31884;52.538;13.820;2023-04-01T01:14:55;10.00;99.90
44843;DHT22;31884;52.538;13.820;2023-04-01T01:17:41;9.90;99.90
44843;DHT22;31884;52.538;13.820;2023-04-01T01:28:52;9.90;99.90
44843;DHT22;31884;52.538;13.820;2023-04-01T01:31:20;9.90;99.90
44843;DHT22;31884;52.538;13.820;2023-04-01T01:33:56;9.90;99.90
44843;DHT22;31884;52.538;13.820;2023-04-01T01:36:31;9.90;99.90
44843;DHT22;31884;52.538;13.820;2023-04-01T01:39:01;9.90;99.90
44843;DHT22;31884;52.538;13.820;2023-04-01T01:41:27;9.90;99.90
44843;DHT22;31884;52.538;13.820;2023-04-01T01:43:55;9.90;99.90
44843;DHT22;31884;52.538;13.820;2023-04-01T01:46:24;9.90;99.90
44843;DHT22;31884;52.538;13.820;2023-04-01T01:48:51;9.90;99.90
44843;DHT22;31884;52.538;13.820;2023-04-01T01:51:19;9.90;99.90
44843;DHT22;31884;52.538;13.820;2023-04-01T01:53:45;9.90;99.90
44843;DHT22;31884;52.538;13.820;2023-04-01T01:56:11;9.90;99.90
44843;DHT22;31884;52.538;13.820;2023-04-01T01:58:47;9.90;99.90
44843;DHT22;31884;52.538;13.820;2023-04-01T02:01:16;9.90;99.90
44843;DHT22;31884;52.538;13.820;2023-04-01T02:03:44;9.80;99.90
44843;DHT22;31884;52.538;13.820;2023-04-01T02:06:14;9.80;99.90
44843;DHT22;31884;52.538;13.820;2023-04-01T02:08:44;9.90;99.90
44843;DHT22;31884;52.538;13.820;2023-04-01T02:11:14;9.80;99.90
44843;DHT22;31884;52.538;13.820;2023-04-01T02:16:39;9.80;99.90
44843;DHT22;31884;52.538;13.820;2023-04-01T02:19:06;9.80;99.90
44843;DHT22;31884;52.538;13.820;2023-04-01T02:21:35;9.80;99.90
44843;DHT22;31884;52.538;13.820;2023-04-01T02:24:04;9.80;99.90
44843;DHT22;31884;52.538;13.820;2023-04-01T02:26:30;9.80;99.90
44843;DHT22;31884;52.538;13.820;2023-04-01T02:28:57;9.80;99.90
44843;DHT22;31884;52.538;13.820;2023-04-01T02:31:25;9.80;99.90
44843;DHT22;31884;52.538;13.820;2023-04-01T02:33:51;9.80;99.90
44843;DHT22;31884;52.538;13.820;2023-04-01T02:36:17;9.80;99.90
44843;DHT22;31884;52.538;13.820;2023-04-01T02:38:44;9.90;99.90
44843;DHT22;31884;52.538;13.820;2023-04-01T02:41:11;9.80;99.90
44843;DHT22;31884;52.538;13.820;2023-04-01T02:43:36;9.90;99.90
44843;DHT22;31884;52.538;13.820;2023-04-01T02:46:02;9.90;99.90
44843;DHT22;31884;52.538;13.820;2023-04-01T02:48:28;9.90;99.90
44843;DHT22;31884;52.538;13.820;2023-04-01T02:50:54;9.90;99.90
44843;DHT22;31884;52.538;13.820;2023-04-01T02:53:19;9.90;99.90
44843;DHT22;31884;52.538;13.820;2023-04-01T02:55:45;9.90;99.90
44843;DHT22;31884;52.538;13.820;2023-04-01T02:58:10;9.90;99.90
44843;DHT22;31884;52.538;13.820;2023-04-01T03:00:36;9.90;99.90
44843;DHT22;31884;52.538;13.820;2023-04-01T03:03:02;9.90;99.90
44843;DHT22;31884;52.538;13.820;2023-04-01T03:05:28;9.90;99.90
44843;DHT22;31884;52.538;13.820;2023-04-01T03:07:53;9.90;99.90
44843;DHT22;31884;52.538;13.820;2023-04-01T03:10:19;9.90;99.90
44843;DHT22;31884;52.538;13.820;2023-04-01T03:12:45;9.90;99.90
44843;DHT22;31884;52.538;13.820;2023-04-01T03:15:11;9.90;99.90
44843;DHT22;31884;52.538;13.820;2023-04-01T03:17:38;9.90;99.90
44843;DHT22;31884;52.538;13.820;2023-04-01T03:20:04;9.90;99.90
44843;DHT22;31884;52.538;13.820;2023-04-01T03:22:30;9.90;99.90
44843;DHT22;31884;52.538;13.820;2023-04-01T03:24:55;9.90;99.90
44843;DHT22;31884;52.538;13.820;2023-04-01T03:27:21;9.90;99.90
44843;DHT22;31884;52.538;13.820;2023-04-01T03:29:46;9.90;99.90
44843;DHT22;31884;52.538;13.820;2023-04-01T03:32:12;9.90;99.90
44843;DHT22;31884;52.538;13.820;2023-04-01T03:34:38;9.90;99.90
44843;DHT22;31884;52.538;13.820;2023-04-01T03:37:03;9.90;99.90
44843;DHT22;31884;52.538;13.820;2023-04-01T03:39:29;9.90;99.90
44843;DHT22;31884;52.538;13.820;2023-04-01T03:41:55;9.90;99.90
44843;DHT22;31884;52.538;13.820;2023-04-01T03:44:21;9.90;99.90
44843;DHT22;31884;52.538;13.820;2023-04-01T03:46:47;10.00;99.90
44843;DHT22;31884;52.538;13.820;2023-04-01T03:49:12;9.90;99.90
44843;DHT22;31884;52.538;13.820;2023-04-01T03:51:39;9.90;99.90
44843;DHT22;31884;52.538;13.820;2023-04-01T03:54:05;9.90;99.90
44843;DHT22;31884;52.538;13.820;2023-04-01T03:56:31;9.90;99.90
44843;DHT22;31884;52.538;13.820;2023-04-01T03:58:56;9.90;99.90
44843;DHT22;31884;52.538;13.820;2023-04-01T04:01:22;9.90;99.90
44843;DHT22;31884;52.538;13.820;2023-04-01T04:03:49;9.90;99.90
44843;DHT22;31884;52.538;13.820;2023-04-01T04:06:16;9.90;99.90
44843;DHT22;31884;52.538;13.820;2023-04-01T04:08:41;9.90;99.90
44843;DHT22;31884;52.538;13.820;2023-04-01T04:11:07;9.90;99.90
44843;DHT22;31884;52.538;13.820;2023-04-01T04:13:33;10.00;99.90
44843;DHT22;31884;52.538;13.820;2023-04-01T04:15:58;10.00;99.90
44843;DHT22;31884;52.538;13.820;2023-04-01T04:18:24;9.90;99.90
44843;DHT22;31884;52.538;13.820;2023-04-01T04:20:50;10.00;99.90
44843;DHT22;31884;52.538;13.820;2023-04-01T04:23:17;9.90;99.90
44843;DHT22;31884;52.538;13.820;2023-04-01T04:26:04;9.90;99.90
44843;DHT22;31884;52.538;13.820;2023-04-01T04:28:30;9.90;99.90
44843;DHT22;31884;52.538;13.820;2023-04-01T04:30:56;9.90;99.90
44843;DHT22;31884;52.538;13.820;2023-04-01T04:33:23;10.00;99.90
44843;DHT22;31884;52.538;13.820;2023-04-01T04:35:49;9.90;99.90
44843;DHT22;31884;52.538;13.820;2023-04-01T04:38:14;10.00;99.90
44843;DHT22;31884;52.538;13.820;2023-04-01T04:40:41;10.00;99.90
44843;DHT22;31884;52.538;13.820;2023-04-01T04:43:07;10.00;99.90
44843;DHT22;31884;52.538;13.820;2023-04-01T04:45:35;10.00;99.90
44843;DHT22;31884;52.538;13.820;2023-04-01T04:48:00;10.00;99.90
44843;DHT22;31884;52.538;13.820;2023-04-01T04:50:26;10.00;99.90
44843;DHT22;31884;52.538;13.820;2023-04-01T04:52:51;10.00;99.90
44843;DHT22;31884;52.538;13.820;2023-04-01T04:55:17;10.00;99.90
44843;DHT22;31884;52.538;13.820;2023-04-01T04:57:43;10.00;99.90
44843;DHT22;31884;52.538;13.820;2023-04-01T05:00:09;10.00;99.90
44843;DHT22;31884;52.538;13.820;2023-04-01T05:02:37;10.00;99.90
44843;DHT22;31884;52.538;13.820;2023-04-01T05:05:03;10.10;99.90
44843;DHT22;31884;52.538;13.820;2023-04-01T05:07:29;10.00;99.90
44843;DHT22;31884;52.538;13.820;2023-04-01T05:09:55;10.10;99.90
44843;DHT22;31884;52.538;13.820;2023-04-01T05:12:20;10.10;99.90
44843;DHT22;31884;52.538;13.820;2023-04-01T05:14:46;10.10;99.90
44843;DHT22;31884;52.538;13.820;2023-04-01T05:17:12;10.10;99.90
44843;DHT22;31884;52.538;13.820;2023-04-01T05:19:38;10.10;99.90
44843;DHT22;31884;52.538;13.820;2023-04-01T05:22:04;10.10;99.90
44843;DHT22;31884;52.538;13.820;2023-04-01T05:24:30;10.20;99.90
44843;DHT22;31884;52.538;13.820;2023-04-01T05:26:55;10.20;99.90
44843;DHT22;31884;52.538;13.820;2023-04-01T05:29:22;10.20;99.90
44843;DHT22;31884;52.538;13.820;2023-04-01T05:31:48;10.20;99.90
44843;DHT22;31884;52.538;13.820;2023-04-01T05:34:13;10.20;99.90
44843;DHT22;31884;52.538;13.820;2023-04-01T05:36:39;10.20;99.90
44843;DHT22;31884;52.538;13.820;2023-04-01T05:39:05;10.20;99.90
44843;DHT22;31884;52.538;13.820;2023-04-01T05:41:30;10.30;99.90
44843;DHT22;31884;52.538;13.820;2023-04-01T05:43:56;10.30;99.90
44843;DHT22;31884;52.538;13.820;2023-04-01T05:46:21;10.30;99.90
44843;DHT22;31884;52.538;13.820;2023-04-01T05:48:47;10.30;99.90
44843;DHT22;31884;52.538;13.820;2023-04-01T05:51:14;10.40;99.90
44843;DHT22;31884;52.538;13.820;2023-04-01T05:53:40;10.40;99.90
44843;DHT22;31884;52.538;13.820;2023-04-01T05:56:06;10.40;99.90
44843;DHT22;31884;52.538;13.820;2023-04-01T05:58:33;10.50;99.90
44843;DHT22;31884;52.538;13.820;2023-04-01T06:01:09;10.50;99.90
44843;DHT22;31884;52.538;13.820;2023-04-01T06:03:35;10.60;99.90
44843;DHT22;31884;52.538;13.820;2023-04-01T06:06:00;10.70;99.90
44843;DHT22;31884;52.538;13.820;2023-04-01T06:08:27;10.70;99.90
44843;DHT22;31884;52.538;13.820;2023-04-01T06:13:42;10.80;99.90
44843;DHT22;31884;52.538;13.820;2023-04-01T06:17:06;10.80;99.90
44843;DHT22;31884;52.538;13.820;2023-04-01T06:28:17;11.10;99.90
44843;DHT22;31884;52.538;13.820;2023-04-01T06:31:11;11.10;99.90
44843;DHT22;31884;52.538;13.820;2023-04-01T06:34:06;11.10;99.90
44843;DHT22;31884;52.538;13.820;2023-04-01T06:42:12;11.10;99.90
44843;DHT22;31884;52.538;13.820;2023-04-01T06:44:57;11.10;99.90
44843;DHT22;31884;52.538;13.820;2023-04-01T06:47:49;11.10;99.90
44843;DHT22;31884;52.538;13.820;2023-04-01T06:50:26;11.20;99.90
44843;DHT22;31884;52.538;13.820;2023-04-01T06:56:04;11.20;99.90
44843;DHT22;31884;52.538;13.820;2023-04-01T07:01:25;11.20;99.90
44843;DHT22;31884;52.538;13.820;2023-04-01T07:04:01;11.20;99.90
44843;DHT22;31884;52.538;13.820;2023-04-01T07:06:35;11.30;99.90
44843;DHT22;31884;52.538;13.820;2023-04-01T07:09:06;11.30;99.90
44843;DHT22;31884;52.538;13.820;2023-04-01T07:11:35;11.30;99.90
44843;DHT22;31884;52.538;13.820;2023-04-01T07:14:22;11.40;99.90
44843;DHT22;31884;52.538;13.820;2023-04-01T07:17:23;11.40;99.90
44843;DHT22;31884;52.538;13.820;2023-04-01T07:20:17;11.40;99.90
44843;DHT22;31884;52.538;13.820;2023-04-01T07:22:57;11.40;99.90
44843;DHT22;31884;52.538;13.820;2023-04-01T07:25:39;11.40;99.90
44843;DHT22;31884;52.538;13.820;2023-04-01T07:28:16;11.50;99.90
44843;DHT22;31884;52.538;13.820;2023-04-01T07:33:55;11.50;99.90
44843;DHT22;31884;52.538;13.820;2023-04-01T07:39:28;11.60;99.90
44843;DHT22;31884;52.538;13.820;2023-04-01T07:42:08;11.60;99.90
44843;DHT22;31884;52.538;13.820;2023-04-01T07:45:01;11.50;99.90
44843;DHT22;31884;52.538;13.820;2023-04-01T07:47:53;11.40;99.90
44843;DHT22;31884;52.538;13.820;2023-04-01T07:50:32;11.40;99.90
44843;DHT22;31884;52.538;13.820;2023-04-01T07:53:15;11.20;99.90
44843;DHT22;31884;52.538;13.820;2023-04-01T07:55:55;11.00;99.90
44843;DHT22;31884;52.538;13.820;2023-04-01T07:58:39;10.80;99.90
44843;DHT22;31884;52.538;13.820;2023-04-01T08:01:23;10.50;99.90
44843;DHT22;31884;52.538;13.820;2023-04-01T08:06:57;10.10;99.90
44843;DHT22;31884;52.538;13.820;2023-04-01T08:12:30;10.00;99.90
44843;DHT22;31884;52.538;13.820;2023-04-01T08:18:05;10.10;99.90
44843;DHT22;31884;52.538;13.820;2023-04-01T08:20:42;10.10;99.90
44843;DHT22;31884;52.538;13.820;2023-04-01T08:23:26;10.10;99.90
44843;DHT22;31884;52.538;13.820;2023-04-01T08:26:04;10.20;99.90
44843;DHT22;31884;52.538;13.820;2023-04-01T08:28:34;10.10;99.90
44843;DHT22;31884;52.538;13.820;2023-04-01T08:31:07;10.10;99.90
44843;DHT22;31884;52.538;13.820;2023-04-01T08:33:34;10.20;99.90
44843;DHT22;31884;52.538;13.820;2023-04-01T08:36:20;10.20;99.90
44843;DHT22;31884;52.538;13.820;2023-04-01T08:39:13;10.30;99.90
44843;DHT22;31884;52.538;13.820;2023-04-01T08:42:05;10.30;99.90
44843;DHT22;31884;52.538;13.820;2023-04-01T08:44:59;10.20;99.90
44843;DHT22;31884;52.538;13.820;2023-04-01T08:47:49;10.30;99.90
44843;DHT22;31884;52.538;13.820;2023-04-01T08:53:18;10.30;99.90
44843;DHT22;31884;52.538;13.820;2023-04-01T08:55:51;10.40;99.90
44843;DHT22;31884;52.538;13.820;2023-04-01T08:58:44;10.50;99.90
44843;DHT22;31884;52.538;13.820;2023-04-01T09:04:04;10.50;99.90
44843;DHT22;31884;52.538;13.820;2023-04-01T09:12:48;10.20;99.90
44843;DHT22;31884;52.538;13.820;2023-04-01T09:28:55;10.10;99.90
44843;DHT22;31884;52.538;13.820;2023-04-01T09:31:57;10.10;99.90
44843;DHT22;31884;52.538;13.820;2023-04-01T09:37:18;10.00;99.90
44843;DHT22;31884;52.538;13.820;2023-04-01T09:40:13;10.10;99.90
44843;DHT22;31884;52.538;13.820;2023-04-01T09:45:42;10.10;99.90
44843;DHT22;31884;52.538;13.820;2023-04-01T09:51:27;10.10;99.90
44843;DHT22;31884;52.538;13.820;2023-04-01T10:00:13;9.70;99.90
44843;DHT22;31884;52.538;13.820;2023-04-01T10:03:05;9.90;99.90
44843;DHT22;31884;52.538;13.820;2023-04-01T10:08:48;9.90;99.90
44843;DHT22;31884;52.538;13.820;2023-04-01T10:14:42;9.60;99.90
44843;DHT22;31884;52.538;13.820;2023-04-01T10:17:52;9.50;99.90
44843;DHT22;31884;52.538;13.820;2023-04-01T10:28:29;10.20;99.90
44843;DHT22;31884;52.538;13.820;2023-04-01T10:39:34;10.40;99.90
44843;DHT22;31884;52.538;13.820;2023-04-01T10:48:31;10.00;99.90
44843;DHT22;31884;52.538;13.820;2023-04-01T10:51:22;9.80;99.90
44843;DHT22;31884;52.538;13.820;2023-04-01T10:56:39;9.90;99.90
44843;DHT22;31884;52.538;13.820;2023-04-01T11:02:20;10.00;99.90
44843;DHT22;31884;52.538;13.820;2023-04-01T11:05:42;9.90;99.90
44843;DHT22;31884;52.538;13.820;2023-04-01T11:14:16;9.70;99.90
44843;DHT22;31884;52.538;13.820;2023-04-01T11:23:04;9.70;99.90
44843;DHT22;31884;52.538;13.820;2023-04-01T11:25:45;9.70;99.90
44843;DHT22;31884;52.538;13.820;2023-04-01T11:31:39;9.70;99.90
44843;DHT22;31884;52.538;13.820;2023-04-01T11:37:25;9.50;99.90
44843;DHT22;31884;52.538;13.820;2023-04-01T11:40:21;9.50;99.90
44843;DHT22;31884;52.538;13.820;2023-04-01T11:42:57;9.50;99.90
44843;DHT22;31884;52.538;13.820;2023-04-01T11:45:37;9.50;99.90
44843;DHT22;31884;52.538;13.820;2023-04-01T11:48:19;9.30;99.90
44843;DHT22;31884;52.538;13.820;2023-04-01T11:51:14;9.20;99.90
44843;DHT22;31884;52.538;13.820;2023-04-01T12:04:50;9.30;99.90
44843;DHT22;31884;52.538;13.820;2023-04-01T12:07:50;9.30;99.90
44843;DHT22;31884;52.538;13.820;2023-04-01T12:10:21;9.10;99.90
44843;DHT22;31884;52.538;13.820;2023-04-01T12:19:28;8.80;99.90
44843;DHT22;31884;52.538;13.820;2023-04-01T12:27:57;8.70;99.90
44843;DHT22;31884;52.538;13.820;2023-04-01T12:33:45;8.90;99.90
44843;DHT22;31884;52.538;13.820;2023-04-01T12:47:46;9.20;99.90
44843;DHT22;31884;52.538;13.820;2023-04-01T12:50:26;9.00;99.90
44843;DHT22;31884;52.538;13.820;2023-04-01T12:55:40;8.80;99.90
44843;DHT22;31884;52.538;13.820;2023-04-01T12:58:43;8.90;99.90
44843;DHT22;31884;52.538;13.820;2023-04-01T13:01:27;8.80;99.90
44843;DHT22;31884;52.538;13.820;2023-04-01T13:04:34;8.80;99.90
44843;DHT22;31884;52.538;13.820;2023-04-01T13:09:53;8.90;99.90
44843;DHT22;31884;52.538;13.820;2023-04-01T13:15:41;8.90;99.90
44843;DHT22;31884;52.538;13.820;2023-04-01T13:18:18;9.10;99.90
44843;DHT22;31884;52.538;13.820;2023-04-01T13:21:04;9.10;99.90
44843;DHT22;31884;52.538;13.820;2023-04-01T13:23:55;9.20;99.90
44843;DHT22;31884;52.538;13.820;2023-04-01T13:29:32;9.30;99.90
44843;DHT22;31884;52.538;13.820;2023-04-01T13:38:01;9.20;99.90
44843;DHT22;31884;52.538;13.820;2023-04-01T13:43:18;9.30;99.90
44843;DHT22;31884;52.538;13.820;2023-04-01T13:49:13;9.20;99.90
44843;DHT22;31884;52.538;13.820;2023-04-01T13:54:23;8.90;99.90
44843;DHT22;31884;52.538;13.820;2023-04-01T13:59:48;8.80;99.90
44843;DHT22;31884;52.538;13.820;2023-04-01T14:02:26;8.80;99.90
44843;DHT22;31884;52.538;13.820;2023-04-01T14:05:25;8.80;99.90
44843;DHT22;31884;52.538;13.820;2023-04-01T14:08:17;8.70;99.90
44843;DHT22;31884;52.538;13.820;2023-04-01T14:11:02;8.70;99.90
44843;DHT22;31884;52.538;13.820;2023-04-01T14:16:56;8.70;99.90
44843;DHT22;31884;52.538;13.820;2023-04-01T14:25:53;8.70;99.90
44843;DHT22;31884;52.538;13.820;2023-04-01T14:28:41;8.50;99.90
44843;DHT22;31884;52.538;13.820;2023-04-01T14:31:48;8.40;99.90
44843;DHT22;31884;52.538;13.820;2023-04-01T14:34:21;8.30;99.90
44843;DHT22;31884;52.538;13.820;2023-04-01T14:39:58;8.20;99.90
44843;DHT22;31884;52.538;13.820;2023-04-01T14:47:59;8.30;99.90
44843;DHT22;31884;52.538;13.820;2023-04-01T14:50:46;8.30;99.90
44843;DHT22;31884;52.538;13.820;2023-04-01T14:53:27;8.30;99.90
44843;DHT22;31884;52.538;13.820;2023-04-01T14:55:58;8.30;99.90
44843;DHT22;31884;52.538;13.820;2023-04-01T15:01:10;8.30;99.90
44843;DHT22;31884;52.538;13.820;2023-04-01T15:03:58;8.20;99.90
44843;DHT22;31884;52.538;13.820;2023-04-01T15:06:39;7.90;99.90
44843;DHT22;31884;52.538;13.820;2023-04-01T15:20:25;7.70;99.90
44843;DHT22;31884;52.538;13.820;2023-04-01T15:23:11;7.60;99.90
44843;DHT22;31884;52.538;13.820;2023-04-01T15:26:10;7.60;99.90
44843;DHT22;31884;52.538;13.820;2023-04-01T15:37:42;7.60;99.90
44843;DHT22;31884;52.538;13.820;2023-04-01T15:42:27;7.40;99.90
44843;DHT22;31884;52.538;13.820;2023-04-01T15:47:39;7.40;99.90
44843;DHT22;31884;52.538;13.820;2023-04-01T15:55:47;7.40;99.90
44843;DHT22;31884;52.538;13.820;2023-04-01T15:58:38;7.30;99.90
44843;DHT22;31884;52.538;13.820;2023-04-01T16:01:35;7.10;99.90
44843;DHT22;31884;52.538;13.820;2023-04-01T16:04:23;7.10;99.90
44843;DHT22;31884;52.538;13.820;2023-04-01T16:23:53;6.80;99.90
44843;DHT22;31884;52.538;13.820;2023-04-01T16:26:37;6.80;99.90
44843;DHT22;31884;52.538;13.820;2023-04-01T16:43:39;6.50;99.90
44843;DHT22;31884;52.538;13.820;2023-04-01T16:46:32;6.40;99.90
44843;DHT22;31884;52.538;13.820;2023-04-01T16:51:57;6.40;99.90
44843;DHT22;31884;52.538;13.820;2023-04-01T16:54:28;6.30;99.90
44843;DHT22;31884;52.538;13.820;2023-04-01T16:57:11;6.30;99.90
44843;DHT22;31884;52.538;13.820;2023-04-01T16:59:48;6.30;99.90
44843;DHT22;31884;52.538;13.820;2023-04-01T17:02:25;6.30;99.90
44843;DHT22;31884;52.538;13.820;2023-04-01T17:05:08;6.20;99.90
44843;DHT22;31884;52.538;13.820;2023-04-01T17:10:30;6.20;99.90
44843;DHT22;31884;52.538;13.820;2023-04-01T17:13:23;6.20;99.90
44843;DHT22;31884;52.538;13.820;2023-04-01T17:18:30;6.00;99.90
44843;DHT22;31884;52.538;13.820;2023-04-01T17:21:09;5.90;99.90
44843;DHT22;31884;52.538;13.820;2023-04-01T17:23:53;5.90;99.90
44843;DHT22;31884;52.538;13.820;2023-04-01T17:29:19;5.80;99.90
44843;DHT22;31884;52.538;13.820;2023-04-01T17:45:57;5.70;99.90
44843;DHT22;31884;52.538;13.820;2023-04-01T17:48:32;5.70;99.90
44843;DHT22;31884;52.538;13.820;2023-04-01T17:51:16;5.60;99.90
44843;DHT22;31884;52.538;13.820;2023-04-01T17:54:12;5.60;99.90
44843;DHT22;31884;52.538;13.820;2023-04-01T18:04:56;5.50;99.90
44843;DHT22;31884;52.538;13.820;2023-04-01T18:07:54;5.50;99.90
44843;DHT22;31884;52.538;13.820;2023-04-01T18:13:37;5.30;99.90
44843;DHT22;31884;52.538;13.820;2023-04-01T18:21:45;5.10;99.90
44843;DHT22;31884;52.538;13.820;2023-04-01T18:24:32;5.00;99.90
44843;DHT22;31884;52.538;13.820;2023-04-01T18:29:36;4.90;99.90
44843;DHT22;31884;52.538;13.820;2023-04-01T18:32:08;4.90;99.90
44843;DHT22;31884;52.538;13.820;2023-04-01T18:35:14;4.80;99.90
44843;DHT22;31884;52.538;13.820;2023-04-01T18:38:06;4.80;99.90
44843;DHT22;31884;52.538;13.820;2023-04-01T18:40:39;4.80;99.90
44843;DHT22;31884;52.538;13.820;2023-04-01T18:43:31;4.80;99.90
44843;DHT22;31884;52.538;13.820;2023-04-01T18:46:16;4.80;99.90
44843;DHT22;31884;52.538;13.820;2023-04-01T18:49:00;4.80;99.90
44843;DHT22;31884;52.538;13.820;2023-04-01T18:57:38;4.70;99.90
44843;DHT22;31884;52.538;13.820;2023-04-01T19:00:28;4.70;99.90
44843;DHT22;31884;52.538;13.820;2023-04-01T19:03:21;4.70;99.90
44843;DHT22;31884;52.538;13.820;2023-04-01T19:05:51;4.70;99.90
44843;DHT22;31884;52.538;13.820;2023-04-01T19:08:33;4.60;99.90
44843;DHT22;31884;52.538;13.820;2023-04-01T19:19:43;4.50;99.90
44843;DHT22;31884;52.538;13.820;2023-04-01T19:22:22;4.50;99.90
44843;DHT22;31884;52.538;13.820;2023-04-01T19:25:02;4.50;99.90
44843;DHT22;31884;52.538;13.820;2023-04-01T19:27:42;4.50;99.90
44843;DHT22;31884;52.538;13.820;2023-04-01T19:30:27;4.50;99.90
44843;DHT22;31884;52.538;13.820;2023-04-01T19:36:07;4.40;99.90
44843;DHT22;31884;52.538;13.820;2023-04-01T19:38:40;4.40;99.90
44843;DHT22;31884;52.538;13.820;2023-04-01T19:41:29;4.40;99.90
44843;DHT22;31884;52.538;13.820;2023-04-01T19:44:05;4.40;99.90
44843;DHT22;31884;52.538;13.820;2023-04-01T19:46:48;4.40;99.90
44843;DHT22;31884;52.538;13.820;2023-04-01T19:49:43;4.40;99.90
44843;DHT22;31884;52.538;13.820;2023-04-01T20:01:12;4.20;99.90
44843;DHT22;31884;52.538;13.820;2023-04-01T20:03:49;4.10;99.90
44843;DHT22;31884;52.538;13.820;2023-04-01T20:12:32;4.10;99.90
44843;DHT22;31884;52.538;13.820;2023-04-01T20:15:04;4.00;99.90
44843;DHT22;31884;52.538;13.820;2023-04-01T20:17:45;4.00;99.90
44843;DHT22;31884;52.538;13.820;2023-04-01T20:25:24;4.00;99.90
44843;DHT22;31884;52.538;13.820;2023-04-01T20:28:12;3.90;99.90
44843;DHT22;31884;52.538;13.820;2023-04-01T20:41:55;3.70;99.90
44843;DHT22;31884;52.538;13.820;2023-04-01T20:47:40;3.60;99.90
44843;DHT22;31884;52.538;13.820;2023-04-01T20:52:56;3.60;99.90
44843;DHT22;31884;52.538;13.820;2023-04-01T20:55:36;3.50;99.90
44843;DHT22;31884;52.538;13.820;2023-04-01T20:58:20;3.50;99.90
44843;DHT22;31884;52.538;13.820;2023-04-01T21:01:08;3.50;99.90
44843;DHT22;31884;52.538;13.820;2023-04-01T21:04:08;3.50;99.90
44843;DHT22;31884;52.538;13.820;2023-04-01T21:12:40;3.50;99.90
44843;DHT22;31884;52.538;13.820;2023-04-01T21:15:33;3.50;99.90
44843;DHT22;31884;52.538;13.820;2023-04-01T21:21:15;3.60;99.90
44843;DHT22;31884;52.538;13.820;2023-04-01T21:32:26;3.50;99.90
44843;DHT22;31884;52.538;13.820;2023-04-01T21:35:07;3.50;99.90
44843;DHT22;31884;52.538;13.820;2023-04-01T21:40:18;3.50;99.90
44843;DHT22;31884;52.538;13.820;2023-04-01T21:43:05;3.50;99.90
44843;DHT22;31884;52.538;13.820;2023-04-01T21:48:58;3.50;99.90
44843;DHT22;31884;52.538;13.820;2023-04-01T21:54:41;3.50;99.90
44843;DHT22;31884;52.538;13.820;2023-04-01T21:57:43;3.50;99.90
44843;DHT22;31884;52.538;13.820;2023-04-01T22:00:19;3.50;99.90
44843;DHT22;31884;52.538;13.820;2023-04-01T22:11:04;3.50;99.90
44843;DHT22;31884;52.538;13.820;2023-04-01T22:13:39;3.50;99.90
44843;DHT22;31884;52.538;13.820;2023-04-01T22:16:24;3.50;99.90
44843;DHT22;31884;52.538;13.820;2023-04-01T22:19:04;3.50;99.90
44843;DHT22;31884;52.538;13.820;2023-04-01T22:21:45;3.60;99.90
44843;DHT22;31884;52.538;13.820;2023-04-01T22:27:03;3.60;99.90
44843;DHT22;31884;52.538;13.820;2023-04-01T22:32:20;3.50;99.90
44843;DHT22;31884;52.538;13.820;2023-04-01T22:35:22;3.50;99.90
44843;DHT22;31884;52.538;13.820;2023-04-01T22:40:54;3.50;99.90
44843;DHT22;31884;52.538;13.820;2023-04-01T22:43:36;3.50;99.90
44843;DHT22;31884;52.538;13.820;2023-04-01T22:46:13;3.50;99.90
44843;DHT22;31884;52.538;13.820;2023-04-01T22:48:51;3.50;99.90
44843;DHT22;31884;52.538;13.820;2023-04-01T22:51:40;3.50;99.90
44843;DHT22;31884;52.538;13.820;2023-04-01T22:57:08;3.50;99.90
44843;DHT22;31884;52.538;13.820;2023-04-01T23:00:05;3.40;99.90
44843;DHT22;31884;52.538;13.820;2023-04-01T23:02:42;3.40;99.90
44843;DHT22;31884;52.538;13.820;2023-04-01T23:05:14;3.40;99.90
44843;DHT22;31884;52.538;13.820;2023-04-01T23:10:42;3.40;99.90
44843;DHT22;31884;52.538;13.820;2023-04-01T23:13:17;3.40;99.90
44843;DHT22;31884;52.538;13.820;2023-04-01T23:15:44;3.40;99.90
44843;DHT22;31884;52.538;13.820;2023-04-01T23:18:27;3.30;99.90
44843;DHT22;31884;52.538;13.820;2023-04-01T23:21:27;3.30;99.90
44843;DHT22;31884;52.538;13.820;2023-04-01T23:24:19;3.30;99.90
44843;DHT22;31884;52.538;13.820;2023-04-01T23:26:56;3.30;99.90
44843;DHT22;31884;52.538;13.820;2023-04-01T23:29:25;3.30;99.90
44843;DHT22;31884;52.538;13.820;2023-04-01T23:32:02;3.30;99.90
44843;DHT22;31884;52.538;13.820;2023-04-01T23:34:35;3.30;99.90
44843;DHT22;31884;52.538;13.820;2023-04-01T23:37:07;3.30;99.90
44843;DHT22;31884;52.538;13.820;2023-04-01T23:39:39;3.30;99.90
44843;DHT22;31884;52.538;13.820;2023-04-01T23:42:25;3.20;99.90
44843;DHT22;31884;52.538;13.820;2023-04-01T23:45:01;3.20;99.90
44843;DHT22;31884;52.538;13.820;2023-04-01T23:47:36;3.20;99.90